Time;durP1;ratioP1;P1;durP2;ratioP2;P2;SDS_P1;SDS_P2;PMS_P1;PMS_P2;Temp;Humidity;BMP_temperature;BMP_pressure;BME280_temperature;BME280_humidity;BME280_pressure;Samples;Min_cycle;Max_cycle;Signal;HPM_P1;HPM_P2
2023/07/26 00:00:03;;;;;;;1.67;1.50;;;;;;;12.80;100.00;91986.19;5018403;28;20080;-74
2023/07/26 00:02:28;;;;;;;1.83;1.67;;;;;;;12.74;100.00;91958.91;5018669;28;20068;-75
2023/07/26 00:04:54;;;;;;;1.40;1.38;;;;;;;12.77;100.00;91923.34;5046131;28;20088;-75
2023/07/26 00:07:19;;;;;;;2.03;1.50;;;;;;;12.77;100.00;91873.19;5020760;28;20567;-75
2023/07/26 00:09:44;;;;;;;4.50;1.77;;;;;;;12.77;100.00;91838.06;5024201;28;20496;-74
2023/07/26 00:12:10;;;;;;;4.25;1.60;;;;;;;12.74;100.00;91820.91;5021019;28;20105;-74
2023/07/26 00:14:35;;;;;;;1.65;1.55;;;;;;;12.73;100.00;91795.56;5023027;28;20691;-74
2023/07/26 00:17:01;;;;;;;1.40;1.40;;;;;;;12.69;100.00;91768.06;5024066;28;20014;-75
2023/07/26 00:19:27;;;;;;;4.13;1.52;;;;;;;12.61;100.00;91778.03;5022646;28;20504;-75
2023/07/26 00:21:52;;;;;;;2.03;1.60;;;;;;;12.60;100.00;91760.63;5019244;28;20525;-75
2023/07/26 00:24:17;;;;;;;3.28;1.50;;;;;;;12.57;100.00;91776.16;5024231;28;20029;-74
2023/07/26 00:26:43;;;;;;;4.15;1.80;;;;;;;12.52;100.00;91787.47;5019409;28;20033;-74
2023/07/26 00:29:08;;;;;;;1.90;1.73;;;;;;;12.53;100.00;91778.50;5020332;28;20246;-74
2023/07/26 00:31:34;;;;;;;1.27;1.27;;;;;;;12.52;100.00;91776.91;5022081;28;20030;-75
2023/07/26 00:33:59;;;;;;;3.92;1.60;;;;;;;12.48;100.00;91778.44;5019202;28;20030;-74
2023/07/26 00:36:24;;;;;;;1.70;1.52;;;;;;;12.49;100.00;91779.25;5017336;28;20009;-75
2023/07/26 00:38:50;;;;;;;1.70;1.60;;;;;;;12.46;100.00;91783.16;5017972;28;20057;-74
2023/07/26 00:41:15;;;;;;;1.40;1.40;;;;;;;12.42;100.00;91790.81;5020031;28;20037;-74
2023/07/26 00:43:41;;;;;;;2.70;1.42;;;;;;;12.37;100.00;91801.28;5022362;28;20147;-74
2023/07/26 00:46:07;;;;;;;3.85;1.67;;;;;;;12.35;100.00;91815.78;5022590;28;20029;-75
2023/07/26 00:48:34;;;;;;;2.28;1.50;;;;;;;12.32;100.00;91824.97;5019784;28;20024;-74
2023/07/26 00:51:01;;;;;;;1.88;1.40;;;;;;;12.34;100.00;91814.19;5020761;28;20324;-74
2023/07/26 00:53:26;;;;;;;1.70;1.60;;;;;;;12.34;100.00;91806.28;5019765;28;20630;-75
2023/07/26 00:55:53;;;;;;;2.67;1.60;;;;;;;12.36;100.00;91794.41;5023019;28;20105;-74
2023/07/26 00:58:19;;;;;;;1.75;1.63;;;;;;;12.38;100.00;91794.97;5016980;28;20079;-74
2023/07/26 01:00:45;;;;;;;1.60;1.50;;;;;;;12.32;100.00;91809.97;5024268;28;20033;-74
2023/07/26 01:03:11;;;;;;;1.55;1.52;;;;;;;12.35;100.00;91803.38;5018025;28;20390;-74
2023/07/26 01:06:12;;;;;;;1.67;1.50;;;;;;;12.33;100.00;91797.56;5019560;28;20021;-75
2023/07/26 01:09:08;;;;;;;2.97;1.70;;;;;;;12.36;100.00;91789.13;5023170;28;20018;-74
2023/07/26 01:11:42;;;;;;;3.85;1.75;;;;;;;12.30;100.00;91783.03;5018446;28;20036;-75
2023/07/26 01:14:21;;;;;;;1.70;1.60;;;;;;;12.16;100.00;91816.09;5015479;28;20025;-74
2023/07/26 01:16:46;;;;;;;2.45;1.60;;;;;;;12.13;100.00;91819.22;5018734;28;20030;-75
2023/07/26 01:19:12;;;;;;;1.70;1.60;;;;;;;12.09;100.00;91828.69;5019618;28;20084;-74
2023/07/26 01:21:37;;;;;;;1.60;1.50;;;;;;;12.05;100.00;91828.38;5023896;28;20018;-75
2023/07/26 01:24:03;;;;;;;1.70;1.60;;;;;;;12.00;100.00;91809.84;5017557;28;20026;-75
2023/07/26 01:26:29;;;;;;;1.60;1.50;;;;;;;11.93;100.00;91815.28;5021641;28;20055;-74
2023/07/26 01:28:55;;;;;;;4.78;1.70;;;;;;;12.00;100.00;91794.03;5022259;28;20079;-75
2023/07/26 01:31:23;;;;;;;1.58;1.48;;;;;;;11.98;100.00;91786.34;5018295;28;20022;-74
2023/07/26 01:33:51;;;;;;;1.52;1.42;;;;;;;11.92;100.00;91775.97;5021622;28;20033;-75
2023/07/26 01:36:19;;;;;;;1.85;1.75;;;;;;;11.86;100.00;91785.69;5025849;28;20018;-75
2023/07/26 01:38:45;;;;;;;1.48;1.48;;;;;;;11.80;100.00;91774.28;5018771;28;20018;-75
2023/07/26 01:41:12;;;;;;;1.55;1.50;;;;;;;11.79;100.00;91771.88;5021735;28;20041;-75
2023/07/26 01:43:37;;;;;;;2.08;1.98;;;;;;;11.81;100.00;91764.53;5022082;28;20116;-75
2023/07/26 01:46:03;;;;;;;2.78;2.50;;;;;;;11.82;100.00;91752.94;5017500;28;20531;-75
2023/07/26 01:48:28;;;;;;;2.83;2.20;;;;;;;11.81;100.00;91748.72;5018524;28;20045;-75
2023/07/26 01:50:53;;;;;;;2.53;2.33;;;;;;;11.83;100.00;91746.66;5017733;28;20022;-75
2023/07/26 01:53:19;;;;;;;2.50;2.30;;;;;;;11.84;100.00;91732.44;5045828;28;20060;-74
2023/07/26 01:55:44;;;;;;;2.40;2.08;;;;;;;11.84;100.00;91738.50;5018993;28;20053;-75
2023/07/26 01:58:10;;;;;;;2.70;2.00;;;;;;;11.82;100.00;91729.22;5017081;28;20791;-74
2023/07/26 02:00:35;;;;;;;2.85;2.03;;;;;;;11.80;100.00;91726.03;5014398;28;20093;-74
2023/07/26 02:03:01;;;;;;;1.67;1.48;;;;;;;11.72;100.00;91729.94;5013829;28;20029;-74
2023/07/26 02:05:26;;;;;;;1.40;1.35;;;;;;;11.72;100.00;91730.72;5016693;28;20486;-74
2023/07/26 02:07:52;;;;;;;3.10;1.65;;;;;;;11.70;100.00;91719.63;5017007;28;20539;-74
2023/07/26 02:10:17;;;;;;;1.80;1.70;;;;;;;11.70;100.00;91701.19;5019029;28;20029;-75
2023/07/26 02:12:43;;;;;;;1.75;1.73;;;;;;;11.62;100.00;91704.28;5019854;28;20030;-75
2023/07/26 02:15:08;;;;;;;1.95;1.73;;;;;;;11.62;100.00;91704.28;5018548;28;20025;-75
2023/07/26 02:17:34;;;;;;;1.70;1.60;;;;;;;11.60;100.00;91708.97;5016962;28;20030;-74
2023/07/26 02:20:00;;;;;;;3.50;1.90;;;;;;;11.57;100.00;91710.25;5016203;28;20026;-75
2023/07/26 02:22:25;;;;;;;1.70;1.60;;;;;;;11.54;100.00;91704.69;5020504;28;20382;-75
2023/07/26 02:24:50;;;;;;;2.92;1.55;;;;;;;11.49;100.00;91694.09;5020562;28;20059;-75
2023/07/26 02:27:16;;;;;;;1.45;1.35;;;;;;;11.50;100.00;91683.31;5017832;28;20056;-75
2023/07/26 02:29:42;;;;;;;2.10;1.65;;;;;;;11.50;100.00;91677.25;5019138;28;20017;-75
2023/07/26 02:32:07;;;;;;;1.40;1.40;;;;;;;11.52;100.00;91670.72;5042155;28;20028;-75
2023/07/26 02:34:33;;;;;;;1.75;1.70;;;;;;;11.52;100.00;91670.72;5021666;28;20021;-75
2023/07/26 02:36:59;;;;;;;1.70;1.60;;;;;;;11.50;100.00;91671.97;5018141;28;20090;-75
2023/07/26 02:39:24;;;;;;;1.80;1.70;;;;;;;11.44;100.00;91661.41;5019872;28;20109;-75
2023/07/26 02:41:49;;;;;;;1.92;1.83;;;;;;;11.40;100.00;91628.69;5019517;28;20026;-75
2023/07/26 02:44:15;;;;;;;1.63;1.50;;;;;;;11.42;100.00;91615.28;5018151;28;20022;-75
2023/07/26 02:46:40;;;;;;;5.03;1.70;;;;;;;11.43;100.00;91603.69;5019276;28;20079;-75
2023/07/26 02:49:05;;;;;;;2.25;1.80;;;;;;;11.38;100.00;91604.44;5018075;28;20060;-75
2023/07/26 02:51:31;;;;;;;1.80;1.70;;;;;;;11.38;100.00;91601.78;5020067;28;20025;-75
2023/07/26 02:53:56;;;;;;;1.80;1.70;;;;;;;11.38;100.00;91590.47;5016745;28;20054;-75
2023/07/26 02:56:22;;;;;;;1.83;1.67;;;;;;;11.38;100.00;91593.91;5021172;28;20101;-75
2023/07/26 02:58:47;;;;;;;2.10;2.00;;;;;;;11.33;100.00;91591.22;5020163;28;20018;-75
2023/07/26 03:01:12;;;;;;;7.40;2.55;;;;;;;11.39;100.00;91578.91;5015237;28;20124;-75
2023/07/26 03:03:38;;;;;;;1.80;1.70;;;;;;;11.42;100.00;91562.59;5016896;28;20120;-74
2023/07/26 03:06:03;;;;;;;1.85;1.75;;;;;;;11.44;100.00;91553.41;5021305;28;20058;-74
2023/07/26 03:08:29;;;;;;;1.70;1.60;;;;;;;11.38;100.00;91557.03;5026443;28;20021;-75
2023/07/26 03:10:54;;;;;;;1.98;1.77;;;;;;;11.26;100.00;91567.69;5021180;28;20446;-75
2023/07/26 03:13:19;;;;;;;2.03;1.90;;;;;;;11.26;100.00;91567.69;5026268;28;20515;-75
2023/07/26 03:15:45;;;;;;;1.83;1.73;;;;;;;11.27;100.00;91556.16;5027405;28;20075;-75
2023/07/26 03:18:11;;;;;;;1.70;1.63;;;;;;;11.24;100.00;91551.38;5027527;28;20033;-75
2023/07/26 03:20:36;;;;;;;1.77;1.67;;;;;;;11.18;100.00;91568.97;5028419;28;20533;-75
2023/07/26 03:23:01;;;;;;;2.10;1.70;;;;;;;11.18;100.00;91568.97;5022575;28;20017;-75
2023/07/26 03:25:27;;;;;;;2.15;1.67;;;;;;;11.21;100.00;91556.34;5027977;28;20021;-75
2023/07/26 03:27:53;;;;;;;4.07;2.88;;;;;;;11.24;100.00;91551.38;5024865;28;20048;-75
2023/07/26 03:30:18;;;;;;;3.40;3.08;;;;;;;11.27;100.00;91550.09;5020717;28;20438;-75
2023/07/26 03:32:43;;;;;;;2.70;2.45;;;;;;;11.25;100.00;91552.94;5026922;28;20044;-76
2023/07/26 03:35:09;;;;;;;2.30;2.20;;;;;;;11.25;100.00;91547.69;5019039;28;20038;-75
2023/07/26 03:37:34;;;;;;;2.10;2.00;;;;;;;11.22;100.00;91542.13;5025959;28;20075;-75
2023/07/26 03:39:59;;;;;;;2.45;1.98;;;;;;;11.21;100.00;91543.19;5024271;28;20032;-75
2023/07/26 03:42:25;;;;;;;1.65;1.65;;;;;;;11.21;100.00;91530.03;5023456;28;20057;-75
2023/07/26 03:44:51;;;;;;;2.10;1.90;;;;;;;11.23;100.00;91517.41;5023816;28;20025;-75
2023/07/26 03:47:16;;;;;;;2.03;1.88;;;;;;;11.18;100.00;91524.22;5026163;28;20025;-75
2023/07/26 03:49:41;;;;;;;1.73;1.73;;;;;;;11.12;100.00;91540.19;5028960;28;20023;-75
2023/07/26 03:52:07;;;;;;;2.05;1.90;;;;;;;11.09;100.00;91548.59;5023932;28;20071;-75
2023/07/26 03:54:33;;;;;;;2.00;1.90;;;;;;;11.07;100.00;91556.72;5025443;28;20026;-75
2023/07/26 03:56:58;;;;;;;4.00;1.85;;;;;;;11.06;100.00;91565.66;5025569;28;20030;-77
2023/07/26 03:59:23;;;;;;;3.17;1.80;;;;;;;11.09;100.00;91565.16;5022788;28;20506;-76
2023/07/26 04:01:49;;;;;;;2.40;2.20;;;;;;;11.06;100.00;91570.91;5024576;28;20081;-75
2023/07/26 04:04:14;;;;;;;4.28;3.55;;;;;;;11.01;100.00;91592.69;5052074;28;20022;-75
2023/07/26 04:06:40;;;;;;;2.75;2.65;;;;;;;10.98;100.00;91595.03;5022602;28;20520;-75
2023/07/26 04:09:05;;;;;;;2.30;2.08;;;;;;;11.00;100.00;91596.38;5021498;28;20083;-76
2023/07/26 04:11:30;;;;;;;4.75;2.10;;;;;;;11.02;100.00;91593.50;5020862;28;20061;-76
2023/07/26 04:13:56;;;;;;;2.85;2.00;;;;;;;10.98;100.00;91610.84;5025368;28;20018;-77
2023/07/26 04:16:21;;;;;;;2.20;1.88;;;;;;;10.97;100.00;91609.25;5044520;28;20143;-75
2023/07/26 04:18:47;;;;;;;1.88;1.77;;;;;;;11.00;100.00;91617.44;5018058;28;20052;-74
2023/07/26 04:21:14;;;;;;;1.70;1.60;;;;;;;10.99;100.00;91626.38;5016496;28;20088;-74
2023/07/26 04:23:40;;;;;;;1.88;1.77;;;;;;;10.96;100.00;91629.50;5019579;28;20036;-74
2023/07/26 04:26:06;;;;;;;4.47;1.98;;;;;;;11.01;100.00;91620.88;5014880;28;20239;-75
2023/07/26 04:28:31;;;;;;;1.83;1.83;;;;;;;10.99;100.00;91618.47;5019539;28;20075;-75
2023/07/26 04:30:57;;;;;;;1.88;1.77;;;;;;;10.97;100.00;91612.66;5026186;28;20097;-75
2023/07/26 04:33:22;;;;;;;1.50;1.50;;;;;;;10.93;100.00;91616.81;5019851;28;20025;-74
2023/07/26 04:35:48;;;;;;;3.05;1.80;;;;;;;10.92;100.00;91619.69;5021067;28;20021;-74
2023/07/26 04:38:13;;;;;;;2.67;1.73;;;;;;;10.89;100.00;91619.13;5021285;28;20594;-74
2023/07/26 04:40:39;;;;;;;2.42;1.75;;;;;;;10.87;100.00;91617.81;5023491;28;20021;-74
2023/07/26 04:43:04;;;;;;;1.75;1.60;;;;;;;10.91;100.00;91610.19;5023533;28;20025;-74
2023/07/26 04:45:30;;;;;;;2.55;1.83;;;;;;;10.90;100.00;91617.31;5023880;28;20541;-74
2023/07/26 04:47:56;;;;;;;2.40;2.00;;;;;;;10.91;100.00;91608.38;5018626;28;20029;-75
2023/07/26 04:50:21;;;;;;;1.80;1.70;;;;;;;10.90;100.00;91609.41;5021234;28;20040;-74
2023/07/26 04:52:47;;;;;;;2.03;1.80;;;;;;;10.94;100.00;91596.56;5017284;28;20021;-74
2023/07/26 04:55:12;;;;;;;2.17;1.80;;;;;;;10.93;100.00;91602.84;5020012;28;20017;-74
2023/07/26 04:57:39;;;;;;;1.98;1.75;;;;;;;10.95;100.00;91601.59;5024556;28;20549;-74
2023/07/26 05:00:08;;;;;;;2.60;2.17;;;;;;;11.02;100.00;91588.25;5022922;28;20022;-74
2023/07/26 05:02:35;;;;;;;1.98;1.80;;;;;;;11.05;100.00;91569.34;5016983;28;20571;-74
2023/07/26 05:05:00;;;;;;;2.50;1.80;;;;;;;11.10;100.00;91569.38;5019546;28;20051;-74
2023/07/26 05:07:25;;;;;;;1.95;1.73;;;;;;;11.03;100.00;91582.72;5020467;28;20093;-74
2023/07/26 05:09:51;;;;;;;2.38;1.60;;;;;;;10.96;100.00;91597.13;5018727;28;20028;-73
2023/07/26 05:12:16;;;;;;;1.90;1.80;;;;;;;10.98;100.00;91597.69;5019816;28;20022;-74
2023/07/26 05:14:43;;;;;;;2.45;1.77;;;;;;;10.96;100.00;91605.81;5021101;28;20032;-74
2023/07/26 05:17:08;;;;;;;1.75;1.65;;;;;;;10.99;100.00;91607.16;5022298;28;20014;-74
2023/07/26 05:19:33;;;;;;;2.50;1.60;;;;;;;11.02;100.00;91593.50;5021969;28;20076;-74
2023/07/26 05:21:59;;;;;;;1.95;1.77;;;;;;;11.02;100.00;91594.28;5024300;28;20026;-74
2023/07/26 05:24:24;;;;;;;3.83;2.38;;;;;;;11.01;100.00;91592.69;5024429;28;20050;-74
2023/07/26 05:26:50;;;;;;;2.78;2.10;;;;;;;11.05;100.00;91587.75;5023872;28;20056;-74
2023/07/26 05:29:15;;;;;;;2.20;2.00;;;;;;;11.06;100.00;91578.81;5024250;28;20091;-74
2023/07/26 05:31:41;;;;;;;3.00;1.80;;;;;;;11.09;100.00;91577.53;5023947;28;20850;-74
2023/07/26 05:34:06;;;;;;;1.67;1.58;;;;;;;11.06;100.00;91570.13;5022201;28;20025;-74
2023/07/26 05:36:31;;;;;;;3.70;2.00;;;;;;;11.12;100.00;91561.25;5024708;28;20083;-74
2023/07/26 05:38:57;;;;;;;2.67;1.95;;;;;;;11.14;100.00;91546.00;5024869;28;20022;-74
2023/07/26 05:41:22;;;;;;;1.70;1.60;;;;;;;11.14;100.00;91549.41;5047037;28;20045;-74
2023/07/26 05:43:47;;;;;;;2.10;2.00;;;;;;;11.15;100.00;91550.22;5024746;28;20025;-74
2023/07/26 05:46:13;;;;;;;3.00;1.77;;;;;;;11.17;100.00;91545.50;5022952;28;20036;-74
2023/07/26 05:48:38;;;;;;;4.65;2.08;;;;;;;11.23;100.00;91538.47;5042817;28;20400;-74
2023/07/26 05:51:04;;;;;;;2.17;2.08;;;;;;;11.31;100.00;91523.03;5026796;28;20033;-75
2023/07/26 05:53:29;;;;;;;2.40;2.25;;;;;;;11.46;100.00;91511.03;5020351;28;20045;-74
2023/07/26 05:55:55;;;;;;;2.03;1.92;;;;;;;11.57;100.00;91491.66;5022904;28;20029;-74
2023/07/26 05:58:20;;;;;;;4.78;2.30;;;;;;;11.72;100.00;91474.38;5024578;28;20029;-74
2023/07/26 06:00:45;;;;;;;2.60;2.20;;;;;;;11.93;100.00;91466.59;5023551;28;20045;-74
2023/07/26 06:03:11;;;;;;;2.53;2.33;;;;;;;12.00;100.00;91470.59;5020770;28;20117;-74
2023/07/26 06:05:36;;;;;;;2.10;2.00;;;;;;;12.12;100.00;91485.47;5018561;28;20018;-74
2023/07/26 06:08:02;;;;;;;4.50;1.90;;;;;;;12.23;100.00;91492.38;5020940;28;20389;-74
2023/07/26 06:10:28;;;;;;;2.00;1.90;;;;;;;12.34;100.00;91516.97;5022944;28;20053;-73
2023/07/26 06:12:53;;;;;;;2.13;1.90;;;;;;;12.39;100.00;91550.47;5022923;28;20049;-74
2023/07/26 06:15:19;;;;;;;1.83;1.73;;;;;;;12.46;100.00;91585.34;5019160;28;20087;-74
2023/07/26 06:17:44;;;;;;;2.00;1.88;;;;;;;12.57;100.00;91621.31;5020695;28;20032;-74
2023/07/26 06:20:10;;;;;;;1.95;1.77;;;;;;;12.66;100.00;91674.38;5018152;28;20033;-74
2023/07/26 06:22:36;;;;;;;4.20;1.88;;;;;;;12.86;100.00;91731.78;5022679;28;20123;-74
2023/07/26 06:25:02;;;;;;;1.80;1.75;;;;;;;13.03;100.00;91770.44;5019820;28;20025;-74
2023/07/26 06:27:29;;;;;;;1.90;1.80;;;;;;;13.18;100.00;91802.25;5020584;28;20042;-74
2023/07/26 06:29:54;;;;;;;1.98;1.88;;;;;;;13.36;100.00;91841.72;5020475;28;20034;-74
2023/07/26 06:32:19;;;;;;;1.55;1.50;;;;;;;13.43;100.00;91914.47;5017245;28;20030;-74
2023/07/26 06:34:45;;;;;;;1.55;1.45;;;;;;;13.49;100.00;91991.13;5019943;28;20044;-74
2023/07/26 06:37:10;;;;;;;1.67;1.40;;;;;;;13.62;100.00;92083.22;5019492;28;20033;-73
2023/07/26 06:39:36;;;;;;;1.65;1.55;;;;;;;13.72;100.00;92169.75;5013930;28;20041;-74
2023/07/26 06:42:01;;;;;;;1.48;1.30;;;;;;;13.79;100.00;92260.22;5019801;28;20064;-73
2023/07/26 06:44:26;;;;;;;1.88;1.77;;;;;;;13.88;100.00;92350.50;5027223;28;20045;-73
2023/07/26 06:46:52;;;;;;;2.85;1.30;;;;;;;14.00;100.00;92441.09;5026823;28;20536;-76
2023/07/26 06:49:17;;;;;;;1.38;1.38;;;;;;;14.03;100.00;92541.09;5021771;28;20041;-75
2023/07/26 06:51:43;;;;;;;2.78;1.70;;;;;;;14.18;100.00;92640.28;5028154;28;20009;-72
2023/07/26 06:54:08;;;;;;;1.58;1.50;;;;;;;14.37;100.00;92730.03;5025355;28;20022;-74
2023/07/26 06:56:34;;;;;;;1.20;1.20;;;;;;;14.55;100.00;92819.81;5026136;28;20033;-74
2023/07/26 06:59:01;;;;;;;1.48;1.48;;;;;;;14.71;100.00;92926.06;5023876;28;20036;-74
2023/07/26 07:01:26;;;;;;;1.17;1.17;;;;;;;14.79;100.00;93046.66;5019397;28;20018;-74
2023/07/26 07:03:52;;;;;;;3.13;1.67;;;;;;;15.01;100.00;93121.06;5026770;28;20017;-75
2023/07/26 07:06:17;;;;;;;1.10;1.10;;;;;;;15.03;100.00;93227.59;5024743;28;20121;-74
2023/07/26 07:08:42;;;;;;;1.42;1.33;;;;;;;15.31;100.00;93301.13;5025132;28;20165;-75
2023/07/26 07:11:08;;;;;;;1.27;1.17;;;;;;;15.57;100.00;93369.81;5023565;28;20064;-75
2023/07/26 07:13:36;;;;;;;2.33;1.23;;;;;;;15.89;100.00;93417.28;5022471;28;20052;-75
2023/07/26 07:16:03;;;;;;;1.20;1.20;;;;;;;16.20;100.00;93483.53;5027518;28;20030;-74
2023/07/26 07:18:29;;;;;;;1.17;1.17;;;;;;;16.45;100.00;93520.44;5024353;28;20017;-75
2023/07/26 07:20:57;;;;;;;1.52;1.23;;;;;;;16.78;100.00;93582.78;5049711;28;20021;-75
2023/07/26 07:23:23;;;;;;;1.35;1.25;;;;;;;16.94;100.00;93647.72;5023028;28;20092;-74
2023/07/26 07:25:48;;;;;;;1.70;1.23;;;;;;;17.30;100.00;93685.75;5022190;28;20459;-75
2023/07/26 07:28:14;;;;;;;2.13;1.10;;;;;;;17.65;100.00;93734.63;5021488;28;20113;-75
2023/07/26 07:30:39;;;;;;;1.40;1.40;;;;;;;17.93;100.00;93788.94;5025374;28;20025;-75
2023/07/26 07:33:04;;;;;;;1.92;1.20;;;;;;;18.13;100.00;93814.41;5026466;28;20045;-75
2023/07/26 07:35:30;;;;;;;2.60;1.17;;;;;;;18.29;100.00;93856.31;5027296;28;20048;-74
2023/07/26 07:37:55;;;;;;;1.52;1.20;;;;;;;18.26;100.00;93888.72;5025161;28;20140;-74
2023/07/26 07:40:21;;;;;;;1.60;1.50;;;;;;;18.32;100.00;93901.09;5050626;28;20783;-74
2023/07/26 07:42:46;;;;;;;1.27;1.20;;;;;;;18.60;100.00;93918.19;5023649;28;20424;-74
2023/07/26 07:45:12;;;;;;;1.00;1.00;;;;;;;18.92;100.00;93946.25;5021017;28;20068;-75
2023/07/26 07:47:38;;;;;;;1.10;1.00;;;;;;;18.99;100.00;93968.28;5028106;28;20017;-75
2023/07/26 07:50:03;;;;;;;1.10;1.10;;;;;;;19.05;100.00;94003.88;5025563;28;20022;-73
2023/07/26 07:52:29;;;;;;;1.17;1.08;;;;;;;19.29;100.00;93985.94;5028140;28;20021;-72
2023/07/26 07:54:54;;;;;;;1.20;1.20;;;;;;;19.45;100.00;93968.34;5018244;28;20689;-72
2023/07/26 07:57:21;;;;;;;1.02;1.00;;;;;;;19.29;100.00;94012.63;5020481;28;20112;-73
2023/07/26 07:59:46;;;;;;;1.67;1.40;;;;;;;19.45;100.00;94021.72;5019393;28;20022;-72
2023/07/26 08:02:12;;;;;;;1.10;1.10;;;;;;;19.58;100.00;94036.63;5023780;28;20029;-72
2023/07/26 08:04:38;;;;;;;1.23;1.17;;;;;;;19.81;100.00;94034.91;5022663;28;20025;-73
2023/07/26 08:07:04;;;;;;;1.00;1.00;;;;;;;20.08;100.00;94062.88;5025691;28;20018;-74
2023/07/26 08:09:29;;;;;;;1.23;1.05;;;;;;;19.92;100.00;94121.38;5024724;28;20020;-74
2023/07/26 08:11:56;;;;;;;0.93;0.93;;;;;;;20.24;100.00;94130.72;5022264;28;20021;-72
2023/07/26 08:14:21;;;;;;;2.78;1.00;;;;;;;20.36;100.00;94178.78;5022130;28;20026;-72
2023/07/26 08:16:46;;;;;;;2.58;1.10;;;;;;;20.69;100.00;94172.66;5022088;28;20173;-72
2023/07/26 08:19:12;;;;;;;3.65;1.42;;;;;;;20.94;100.00;94219.59;5018610;28;20494;-72
2023/07/26 08:21:37;;;;;;;0.93;0.93;;;;;;;20.78;100.00;94272.00;5026944;28;20069;-72
2023/07/26 08:24:03;;;;;;;1.77;1.67;;;;;;;20.98;100.00;94265.41;5022220;28;20081;-73
2023/07/26 08:26:28;;;;;;;2.47;1.20;;;;;;;21.25;100.00;94252.19;5021720;28;20124;-72
2023/07/26 08:28:54;;;;;;;0.90;0.90;;;;;;;21.66;100.00;94254.69;5019292;28;20045;-73
2023/07/26 08:31:19;;;;;;;1.02;1.00;;;;;;;21.41;100.00;94335.41;5022220;28;20053;-72
2023/07/26 08:33:44;;;;;;;0.93;0.93;;;;;;;20.79;100.00;94399.31;5021951;28;20033;-73
2023/07/26 08:36:10;;;;;;;0.95;0.90;;;;;;;21.10;100.00;94333.00;5022043;28;20029;-72
2023/07/26 08:38:35;;;;;;;1.38;1.15;;;;;;;21.41;100.00;94394.28;5023918;28;20026;-73
2023/07/26 08:41:01;;;;;;;0.93;0.93;;;;;;;21.34;100.00;94448.00;5017489;28;20022;-74
2023/07/26 08:43:31;;;;;;;0.90;0.90;;;;;;;21.65;100.00;94542.28;5021491;28;20049;-73
2023/07/26 08:46:00;;;;;;;0.93;0.93;;;;;;;22.04;100.00;94522.84;5019519;28;20021;-72
2023/07/26 08:48:27;;;;;;;1.00;1.00;;;;;;;22.14;100.00;94568.59;5021818;28;20379;-73
2023/07/26 08:50:52;;;;;;;1.33;1.23;;;;;;;22.23;100.00;94578.91;5018042;28;20021;-73
2023/07/26 08:53:18;;;;;;;0.90;0.90;;;;;;;22.15;100.00;94537.22;5017308;28;20093;-73
2023/07/26 08:55:45;;;;;;;1.20;1.10;;;;;;;22.47;100.00;94582.28;5021543;28;20037;-73
2023/07/26 08:58:10;;;;;;;2.10;1.00;;;;;;;22.41;100.00;94634.13;5024652;28;20162;-74
2023/07/26 09:00:35;;;;;;;1.20;1.10;;;;;;;22.46;100.00;94664.56;5023818;28;20061;-73
2023/07/26 09:03:02;;;;;;;1.48;1.00;;;;;;;22.91;100.00;94626.38;5024599;28;20061;-73
2023/07/26 09:05:28;;;;;;;1.27;1.20;;;;;;;22.88;100.00;94709.00;5018060;28;20026;-73
2023/07/26 09:07:54;;;;;;;0.85;0.85;;;;;;;22.98;100.00;94745.91;5021004;28;20120;-73
2023/07/26 09:10:30;;;;;;;1.30;1.20;;;;;;;22.71;100.00;94778.72;5020641;28;20417;-73
2023/07/26 09:13:09;;;;;;;1.75;1.20;;;;;;;22.80;100.00;94781.81;5017629;28;20024;-74
2023/07/26 09:15:37;;;;;;;1.60;1.13;;;;;;;22.91;100.00;94771.28;5023980;28;20025;-74
2023/07/26 09:18:06;;;;;;;1.92;1.10;;;;;;;22.17;100.00;94774.47;5023738;28;20025;-74
2023/07/26 09:20:32;;;;;;;0.90;0.82;;;;;;;22.07;100.00;94733.25;5017717;28;20061;-74
2023/07/26 09:23:03;;;;;;;2.33;1.15;;;;;;;22.67;100.00;94717.75;5039598;28;20022;-74
2023/07/26 09:25:40;;;;;;;1.55;1.10;;;;;;;22.97;100.00;94797.16;5018970;28;20022;-74
2023/07/26 09:28:07;;;;;;;1.02;1.02;;;;;;;22.91;100.00;94867.88;5014046;28;20038;-74
2023/07/26 09:30:37;;;;;;;1.33;1.08;;;;;;;22.33;100.00;95083.91;5018583;28;20039;-74
2023/07/26 09:33:06;;;;;;;1.65;1.10;;;;;;;22.43;100.00;94873.34;5016640;28;20034;-74
2023/07/26 09:35:32;;;;;;;0.95;0.95;;;;;;;22.66;100.00;94781.31;5023744;28;20056;-74
2023/07/26 09:38:08;;;;;;;0.80;0.80;;;;;;;22.34;100.00;94781.78;5021748;28;20064;-74
2023/07/26 09:40:33;;;;;;;2.95;0.98;;;;;;;21.68;100.00;94757.91;5020383;28;20021;-74
2023/07/26 09:42:59;;;;;;;1.40;1.10;;;;;;;21.24;100.00;94736.81;5027476;28;20081;-74
2023/07/26 09:45:25;;;;;;;5.97;1.00;;;;;;;21.65;100.00;94704.81;5017584;28;20025;-74
2023/07/26 09:47:51;;;;;;;1.27;1.17;;;;;;;22.07;100.00;94719.84;5023055;28;20095;-70
2023/07/26 09:50:25;;;;;;;1.02;0.88;;;;;;;22.14;100.00;94761.56;5023331;28;20076;-71
2023/07/26 09:52:55;;;;;;;0.90;0.90;;;;;;;22.54;100.00;94794.78;5017680;28;20080;-74
2023/07/26 09:55:27;;;;;;;1.00;1.00;;;;;;;22.92;100.00;94808.59;5016686;28;20029;-72
2023/07/26 09:57:56;;;;;;;1.83;1.73;;;;;;;22.94;100.00;94808.38;5019919;28;20026;-71
2023/07/26 10:00:26;;;;;;;1.80;1.70;;;;;;;22.97;100.00;94811.34;5021649;28;20037;-73
2023/07/26 10:03:05;;;;;;;1.58;1.10;;;;;;;22.50;100.00;94843.75;5019733;28;20056;-72
2023/07/26 10:05:37;;;;;;;1.13;1.02;;;;;;;22.79;100.00;94822.31;5027071;28;20040;-75
2023/07/26 10:08:02;;;;;;;0.95;0.95;;;;;;;22.53;100.00;94873.59;5022403;28;20410;-69
2023/07/26 10:10:29;;;;;;;1.10;0.93;;;;;;;22.74;100.00;94823.84;5021705;28;20034;-72
2023/07/26 10:12:57;;;;;;;0.88;0.88;;;;;;;23.18;100.00;94814.41;5021412;28;20025;-71
2023/07/26 10:15:24;;;;;;;3.90;1.20;;;;;;;23.34;100.00;94869.22;5020080;28;20137;-74
2023/07/26 10:17:52;;;;;;;1.10;0.98;;;;;;;23.43;100.00;94905.34;5017094;28;20104;-75
2023/07/26 10:20:18;;;;;;;2.42;1.15;;;;;;;23.29;100.00;94949.66;5018514;28;20172;-74
2023/07/26 10:22:45;;;;;;;1.73;1.10;;;;;;;23.54;100.00;94919.75;5022916;28;20053;-74
2023/07/26 10:25:11;;;;;;;1.58;1.23;;;;;;;23.82;100.00;94903.81;5020829;28;20029;-74
2023/07/26 10:27:37;;;;;;;0.90;0.90;;;;;;;23.72;100.00;94907.97;5020772;28;20053;-76
2023/07/26 10:30:04;;;;;;;1.25;1.13;;;;;;;24.14;100.00;94938.19;5022147;28;20033;-74
2023/07/26 10:32:30;;;;;;;1.00;0.90;;;;;;;24.24;100.00;94895.31;5021871;28;20119;-75
2023/07/26 10:34:56;;;;;;;1.10;1.00;;;;;;;24.26;100.00;94900.44;5021378;28;20029;-76
2023/07/26 10:37:23;;;;;;;1.08;0.95;;;;;;;24.40;100.00;94933.16;5018092;28;20040;-76
2023/07/26 10:39:49;;;;;;;1.65;0.90;;;;;;;24.24;100.00;94945.59;5024064;28;20052;-75
2023/07/26 10:42:28;;;;;;;2.70;0.88;;;;;;;24.59;100.00;94914.88;5021682;28;20033;-75
2023/07/26 10:45:04;;;;;;;1.00;1.00;;;;;;;24.82;100.00;94943.44;5022087;28;20101;-75
2023/07/26 10:47:30;;;;;;;0.88;0.88;;;;;;;25.08;100.00;94926.78;5021533;28;20049;-75
2023/07/26 10:50:04;;;;;;;1.40;1.10;;;;;;;24.86;100.00;94928.41;5023175;28;20030;-75
2023/07/26 10:52:37;;;;;;;0.90;0.90;;;;;;;25.33;100.00;94920.84;5020274;28;20118;-75
2023/07/26 10:55:29;;;;;;;2.05;1.20;;;;;;;25.39;100.00;94952.16;5019050;28;20510;-74
2023/07/26 10:57:57;;;;;;;1.13;0.95;;;;;;;25.40;100.00;94905.28;5020883;28;20086;-74
2023/07/26 11:00:37;;;;;;;1.33;1.08;;;;;;;24.71;100.00;94893.22;5016402;28;20032;-74
2023/07/26 11:03:02;;;;;;;2.15;1.20;;;;;;;24.43;100.00;94893.16;5021844;28;20486;-75
2023/07/26 11:05:29;;;;;;;5.35;1.00;;;;;;;24.73;100.00;94846.13;5017365;28;20033;-75
2023/07/26 11:08:00;;;;;;;1.20;1.13;;;;;;;24.88;100.00;94858.19;5021476;28;20032;-76
2023/07/26 11:10:36;;;;;;;1.05;0.90;;;;;;;24.93;100.00;94866.31;5019222;28;20022;-75
2023/07/26 11:13:19;;;;;;;0.90;0.90;;;;;;;24.50;100.00;94855.31;5013335;28;20033;-76
2023/07/26 11:15:46;;;;;;;2.17;1.20;;;;;;;24.39;100.00;94850.84;5013540;28;20022;-75
2023/07/26 11:18:14;;;;;;;2.53;1.10;;;;;;;24.56;100.00;94843.53;5015810;28;20139;-75
2023/07/26 11:20:49;;;;;;;1.33;1.00;;;;;;;24.64;100.00;94836.91;5013696;28;20053;-75